createdAt,value
2018-05-10T00:00:06.456Z,68.29
2018-05-10T00:02:34.734Z,68.34
2018-05-10T00:05:06.286Z,67.98
2018-05-10T00:07:34.569Z,67.78
2018-05-10T00:10:05.840Z,67.60
2018-05-10T00:12:34.127Z,66.90
2018-05-10T00:15:08.688Z,66.52
2018-05-10T00:17:37.160Z,66.57
2018-05-10T00:20:06.703Z,66.54
2018-05-10T00:22:35.249Z,66.56
2018-05-10T00:25:07.367Z,66.93
2018-05-10T00:27:35.660Z,67.27
2018-05-10T00:30:06.461Z,67.08
2018-05-10T00:32:34.758Z,67.17
2018-05-10T00:35:06.266Z,67.55
2018-05-10T00:37:34.561Z,67.76
2018-05-10T00:40:05.854Z,68.36
2018-05-10T00:42:34.143Z,68.62
2018-05-10T00:45:06.425Z,68.88
2018-05-10T00:47:34.708Z,68.28
2018-05-10T00:50:06.007Z,68.22
2018-05-10T00:52:34.304Z,67.61
2018-05-10T00:55:05.737Z,67.76
2018-05-10T00:57:34.015Z,67.53
2018-05-10T01:00:08.785Z,67.48
2018-05-10T01:02:37.082Z,67.27
2018-05-10T01:05:06.866Z,67.27
2018-05-10T01:07:35.157Z,67.33
2018-05-10T01:10:07.289Z,67.70
2018-05-10T01:12:35.675Z,67.36
2018-05-10T01:15:07.844Z,67.76
2018-05-10T01:17:36.131Z,67.91
2018-05-10T01:20:07.691Z,69.71
2018-05-10T01:22:36.108Z,70.36
2018-05-10T01:25:06.024Z,69.97
2018-05-10T01:27:34.450Z,70.38
2018-05-10T01:30:05.482Z,70.42
2018-05-10T01:32:34.095Z,69.77
2018-05-10T01:35:17.188Z,70.02
2018-05-10T01:37:45.879Z,69.85
2018-05-10T01:40:14.149Z,70.09
2018-05-10T01:42:42.915Z,69.82
2018-05-10T01:45:11.151Z,70.02
2018-05-10T01:47:39.604Z,70.02
2018-05-10T01:50:07.875Z,69.81
2018-05-10T01:52:36.154Z,69.94
2018-05-10T01:55:06.477Z,69.49
2018-05-10T01:57:35.167Z,69.68
2018-05-10T02:00:05.512Z,70.40
2018-05-10T02:02:33.767Z,70.33
2018-05-10T02:05:08.075Z,70.21
2018-05-10T02:07:36.804Z,70.81
2018-05-10T02:10:05.794Z,70.85
2018-05-10T02:12:34.080Z,71.39
2018-05-10T02:15:05.394Z,71.07
2018-05-10T02:17:33.860Z,71.66
2018-05-10T02:20:06.798Z,71.73
2018-05-10T02:22:35.241Z,71.83
2018-05-10T02:25:07.317Z,71.62
2018-05-10T02:27:35.628Z,71.83
2018-05-10T02:30:05.962Z,71.67
2018-05-10T02:32:34.383Z,72.20
2018-05-10T02:35:06.276Z,72.41
2018-05-10T02:37:34.712Z,72.60
2018-05-10T02:40:07.391Z,72.77
2018-05-10T02:42:35.991Z,72.70
2018-05-10T02:45:08.276Z,72.23
2018-05-10T02:47:36.564Z,72.37
2018-05-10T02:50:06.368Z,73.08
2018-05-10T02:52:34.687Z,72.99
2018-05-10T02:55:05.573Z,72.57
2018-05-10T02:57:33.875Z,72.47
2018-05-10T03:00:05.222Z,72.41
2018-05-10T03:02:33.488Z,71.97
2018-05-10T03:05:06.943Z,72.02
2018-05-10T03:07:35.598Z,72.36
2018-05-10T03:10:07.380Z,72.73
2018-05-10T03:12:35.649Z,73.37
2018-05-10T03:15:05.571Z,73.18
2018-05-10T03:17:33.966Z,73.57
2018-05-10T03:20:05.650Z,73.31
2018-05-10T03:22:33.936Z,73.22
2018-05-10T03:25:09.442Z,73.04
2018-05-10T03:27:37.725Z,73.06
2018-05-10T03:30:06.297Z,73.71
2018-05-10T03:32:34.570Z,73.26
2018-05-10T03:35:05.795Z,73.27
2018-05-10T03:37:34.676Z,72.86
2018-05-10T03:40:05.891Z,73.06
2018-05-10T03:42:35.056Z,73.36
2018-05-10T03:45:07.427Z,74.06
2018-05-10T03:47:36.067Z,73.30
2018-05-10T03:50:06.280Z,73.55
2018-05-10T03:52:34.567Z,73.86
2018-05-10T03:55:05.751Z,72.77
2018-05-10T03:57:34.043Z,73.40
2018-05-10T04:00:09.075Z,73.12
2018-05-10T04:05:48.088Z,72.31
2018-05-10T04:08:28.041Z,73.11
2018-05-10T04:11:07.987Z,72.66
2018-05-10T04:13:36.266Z,73.30
2018-05-10T04:16:04.555Z,72.62
2018-05-10T04:18:33.031Z,72.32
2018-05-10T04:21:01.435Z,73.94
2018-05-10T04:23:30.079Z,74.46
2018-05-10T04:25:58.583Z,73.89
2018-05-10T04:28:26.962Z,74.60
2018-05-10T04:30:55.259Z,74.93
2018-05-10T04:33:23.536Z,74.62
2018-05-10T04:35:51.871Z,75.36
2018-05-10T04:38:20.112Z,75.09
2018-05-10T04:40:48.391Z,74.60
2018-05-10T04:43:16.689Z,73.99
2018-05-10T04:45:45.166Z,74.50
2018-05-10T04:48:13.462Z,74.81
2018-05-10T04:50:41.740Z,74.09
2018-05-10T04:53:10.843Z,73.64
2018-05-10T04:55:39.115Z,74.74
2018-05-10T04:58:07.460Z,74.04
2018-05-10T05:00:35.731Z,73.62
2018-05-10T05:03:04.026Z,73.72
2018-05-10T05:05:32.783Z,73.99
2018-05-10T05:08:01.211Z,74.30
2018-05-10T05:10:29.488Z,74.77
2018-05-10T05:12:57.791Z,73.67
2018-05-10T05:15:26.263Z,73.95
2018-05-10T05:17:54.560Z,73.33
2018-05-10T05:20:23.103Z,73.63
2018-05-10T05:22:51.399Z,73.40
2018-05-10T05:25:19.697Z,73.43
2018-05-10T05:27:47.990Z,73.51
2018-05-10T05:30:16.394Z,73.53
2018-05-10T05:32:44.731Z,73.39
2018-05-10T05:35:13.166Z,72.79
2018-05-10T05:37:41.464Z,73.02
2018-05-10T05:40:09.751Z,72.64
2018-05-10T05:42:38.070Z,73.09
2018-05-10T05:45:06.935Z,73.38
2018-05-10T05:47:35.364Z,74.76
2018-05-10T05:50:08.223Z,74.97
2018-05-10T05:52:36.628Z,75.43
2018-05-10T05:55:05.796Z,75.04
2018-05-10T05:57:34.074Z,74.46
2018-05-10T06:00:09.219Z,74.99
2018-05-10T06:02:37.620Z,75.54
2018-05-10T06:05:05.891Z,74.96
2018-05-10T06:07:34.182Z,74.69
2018-05-10T06:10:05.853Z,74.01
2018-05-10T06:12:34.163Z,73.95
2018-05-10T06:15:05.779Z,74.88
2018-05-10T06:17:34.083Z,74.09
2018-05-10T06:20:05.760Z,73.87
2018-05-10T06:22:34.367Z,73.78
2018-05-10T06:25:08.409Z,74.59
2018-05-10T06:27:36.870Z,74.78
2018-05-10T06:30:06.083Z,74.70
2018-05-10T06:32:34.370Z,74.17
2018-05-10T06:35:05.787Z,73.48
2018-05-10T06:37:34.088Z,73.40
2018-05-10T06:40:09.175Z,74.56
2018-05-10T06:42:37.470Z,74.24
2018-05-10T06:45:05.823Z,73.18
2018-05-10T06:47:34.120Z,73.10
2018-05-10T06:50:05.623Z,71.93
2018-05-10T06:52:33.927Z,71.42
2018-05-10T06:55:05.853Z,71.83
2018-05-10T06:57:34.143Z,72.61
2018-05-10T07:00:07.451Z,71.71
2018-05-10T07:02:35.745Z,70.79
2018-05-10T07:05:07.571Z,70.68
2018-05-10T07:07:35.883Z,71.44
2018-05-10T07:10:07.095Z,70.67
2018-05-10T07:12:35.500Z,71.87
2018-05-10T07:15:08.000Z,71.17
2018-05-10T07:17:37.138Z,70.20
2018-05-10T07:20:05.879Z,71.07
2018-05-10T07:22:34.155Z,71.36
2018-05-10T07:25:05.734Z,72.05
2018-05-10T07:27:33.995Z,70.97
2018-05-10T07:30:05.432Z,71.04
2018-05-10T07:32:33.711Z,71.12
2018-05-10T07:35:05.343Z,71.62
2018-05-10T07:37:33.659Z,69.14
2018-05-10T07:40:08.279Z,69.17
2018-05-10T07:42:36.551Z,69.29
2018-05-10T07:45:06.807Z,67.53
2018-05-10T07:47:35.113Z,68.15
2018-05-10T07:50:06.561Z,67.50
2018-05-10T07:52:34.999Z,68.65
2018-05-10T07:55:06.923Z,67.71
2018-05-10T07:57:35.221Z,69.44
2018-05-10T08:00:07.482Z,68.91
2018-05-10T08:02:35.774Z,67.80
2018-05-10T08:05:07.632Z,67.08
2018-05-10T08:07:36.126Z,67.48
2018-05-10T08:10:06.109Z,69.24
2018-05-10T08:12:34.564Z,67.75
2018-05-10T08:15:05.954Z,67.41
2018-05-10T08:17:34.248Z,69.04
2018-05-10T08:20:05.734Z,68.77
2018-05-10T08:22:34.017Z,68.18
2018-05-10T08:25:08.911Z,67.38
2018-05-10T08:27:47.464Z,67.53
2018-05-10T08:30:15.804Z,65.96
2018-05-10T08:32:44.039Z,65.06
2018-05-10T08:35:12.330Z,65.39
2018-05-10T08:37:40.828Z,64.77
2018-05-10T08:40:10.115Z,65.35
2018-05-10T08:42:39.276Z,65.99
2018-05-10T08:45:07.617Z,65.55
2018-05-10T08:47:36.070Z,65.54
2018-05-10T08:50:05.949Z,65.73
2018-05-10T08:52:34.347Z,65.36
2018-05-10T08:55:09.230Z,65.91
2018-05-10T08:57:37.511Z,66.03
2018-05-10T09:00:07.074Z,65.77
2018-05-10T09:02:35.352Z,66.89
2018-05-10T09:05:07.503Z,65.52
2018-05-10T09:07:35.789Z,66.55
2018-05-10T09:10:05.947Z,65.92
2018-05-10T09:12:34.708Z,65.87
2018-05-10T09:15:06.073Z,66.41
2018-05-10T09:17:35.276Z,65.11
2018-05-10T09:20:07.117Z,63.93
2018-05-10T09:22:35.399Z,64.14
2018-05-10T09:25:06.103Z,61.91
2018-05-10T09:27:34.396Z,61.56
2018-05-10T09:30:06.476Z,61.20
2018-05-10T09:32:34.755Z,60.54
2018-05-10T09:35:06.266Z,60.12
2018-05-10T09:37:34.545Z,60.19
2018-05-10T09:40:07.635Z,59.37
2018-05-10T09:42:35.911Z,60.77
2018-05-10T09:45:08.386Z,60.77
2018-05-10T09:47:36.659Z,59.79
2018-05-10T09:50:08.592Z,59.24
2018-05-10T09:52:36.946Z,57.71
2018-05-10T09:55:06.136Z,57.20
2018-05-10T09:57:34.409Z,56.76
2018-05-10T10:00:09.295Z,57.31
2018-05-10T10:02:37.650Z,56.64
2018-05-10T10:05:06.098Z,56.65
2018-05-10T10:07:34.376Z,58.48
2018-05-10T10:10:05.911Z,58.24
2018-05-10T10:12:34.191Z,58.21
2018-05-10T10:15:05.799Z,59.02
2018-05-10T10:17:34.111Z,60.78
2018-05-10T10:20:05.755Z,60.69
2018-05-10T10:22:34.131Z,60.49
2018-05-10T10:25:09.019Z,60.75
2018-05-10T10:27:37.460Z,61.75
2018-05-10T10:30:06.780Z,61.70
2018-05-10T10:32:35.064Z,61.97
2018-05-10T10:35:07.695Z,60.99
2018-05-10T10:37:35.982Z,61.32
2018-05-10T10:40:07.419Z,61.11
2018-05-10T10:42:35.642Z,60.48
2018-05-10T10:45:07.055Z,58.85
2018-05-10T10:47:35.344Z,56.38
2018-05-10T10:50:07.328Z,55.51
2018-05-10T10:52:35.674Z,55.40
2018-05-10T10:55:07.535Z,55.52
2018-05-10T10:57:35.851Z,54.95
2018-05-10T11:00:07.941Z,53.96
2018-05-10T11:02:36.246Z,55.74
2018-05-10T11:05:06.198Z,55.86
2018-05-10T11:07:34.471Z,56.30
2018-05-10T11:10:06.079Z,56.20
2018-05-10T11:12:34.361Z,56.07
2018-05-10T11:15:05.944Z,55.80
2018-05-10T11:17:34.236Z,55.14
2018-05-10T11:20:09.221Z,55.20
2018-05-10T11:22:37.595Z,57.02
2018-05-10T11:25:06.210Z,56.81
2018-05-10T11:27:34.821Z,55.27
2018-05-10T11:30:06.331Z,57.01
2018-05-10T11:32:34.617Z,57.85
2018-05-10T11:35:06.216Z,57.15
2018-05-10T11:37:34.642Z,57.37
2018-05-10T11:40:06.806Z,57.35
2018-05-10T11:42:35.095Z,59.49
2018-05-10T11:45:06.182Z,58.71
2018-05-10T11:47:34.488Z,59.96
2018-05-10T11:50:06.501Z,60.84
2018-05-10T11:52:34.802Z,61.82
2018-05-10T11:55:06.176Z,61.89
2018-05-10T11:57:34.483Z,62.90
2018-05-10T12:00:06.371Z,64.03
2018-05-10T12:02:34.686Z,63.97
2018-05-10T12:05:06.161Z,63.83
2018-05-10T12:07:34.452Z,65.31
2018-05-10T12:10:06.396Z,66.30
2018-05-10T12:12:34.696Z,65.55
2018-05-10T12:15:06.052Z,64.85
2018-05-10T12:17:34.603Z,65.07
2018-05-10T12:20:06.445Z,65.98
2018-05-10T12:22:34.751Z,66.15
2018-05-10T12:25:06.233Z,64.92
2018-05-10T12:27:34.535Z,64.56
2018-05-10T12:30:06.247Z,65.74
2018-05-10T12:32:34.559Z,64.50
2018-05-10T12:35:06.010Z,65.82
2018-05-10T12:37:34.330Z,65.38
2018-05-10T12:40:05.815Z,66.30
2018-05-10T12:42:34.128Z,67.27
2018-05-10T12:45:05.642Z,68.89
2018-05-10T12:47:33.935Z,69.48
2018-05-10T12:50:08.624Z,70.81
2018-05-10T12:52:36.946Z,71.14
2018-05-10T12:55:06.247Z,71.20
2018-05-10T12:57:34.555Z,72.77
2018-05-10T13:00:06.121Z,73.40
2018-05-10T13:02:34.428Z,72.73
2018-05-10T13:05:05.960Z,71.59
2018-05-10T13:07:34.280Z,71.22
2018-05-10T13:10:06.577Z,70.72
2018-05-10T13:12:35.028Z,70.33
2018-05-10T13:15:06.764Z,70.42
2018-05-10T13:17:35.106Z,69.97
2018-05-10T13:20:07.115Z,69.46
2018-05-10T13:22:35.405Z,68.94
2018-05-10T13:25:07.619Z,68.59
2018-05-10T13:27:35.923Z,67.90
2018-05-10T13:30:07.891Z,67.57
2018-05-10T13:32:36.200Z,66.78
2018-05-10T13:35:06.340Z,66.96
2018-05-10T13:37:34.619Z,66.28
2018-05-10T13:40:06.586Z,66.79
2018-05-10T13:42:35.204Z,66.78
2018-05-10T13:45:06.276Z,67.69
2018-05-10T13:47:34.743Z,66.35
2018-05-10T13:50:06.162Z,65.75
2018-05-10T13:52:34.451Z,65.32
2018-05-10T13:55:08.558Z,65.56
2018-05-10T13:57:36.839Z,66.19
2018-05-10T14:00:06.988Z,66.12
2018-05-10T14:02:35.270Z,65.70
2018-05-10T14:05:06.628Z,65.43
2018-05-10T14:07:34.915Z,65.93
2018-05-10T14:10:07.041Z,66.23
2018-05-10T14:12:35.447Z,67.53
2018-05-10T14:15:07.182Z,66.39
2018-05-10T14:17:35.708Z,65.70
2018-05-10T14:20:07.576Z,67.22
2018-05-10T14:22:35.843Z,66.55
2018-05-10T14:25:08.042Z,66.69
2018-05-10T14:27:36.289Z,66.22
2018-05-10T14:30:07.635Z,65.89
2018-05-10T14:32:35.918Z,66.10
2018-05-10T14:35:08.282Z,66.07
2018-05-10T14:37:36.559Z,66.76
2018-05-10T14:40:06.423Z,65.53
2018-05-10T14:42:34.691Z,66.45
2018-05-10T14:45:06.310Z,65.90
2018-05-10T14:47:34.587Z,65.03
2018-05-10T14:50:05.987Z,64.79
2018-05-10T14:52:34.286Z,64.38
2018-05-10T14:55:09.202Z,64.93
2018-05-10T14:57:37.468Z,64.99
2018-05-10T15:00:06.492Z,63.95
2018-05-10T15:02:34.785Z,63.99
2018-05-10T15:05:09.971Z,63.82
2018-05-10T15:07:38.246Z,63.63
2018-05-10T15:10:06.534Z,63.08
2018-05-10T15:12:34.812Z,63.94
2018-05-10T15:15:08.936Z,63.26
2018-05-10T15:17:38.070Z,63.62
2018-05-10T15:20:06.444Z,61.75
2018-05-10T15:22:34.811Z,61.26
2018-05-10T15:25:09.710Z,60.51
2018-05-10T15:27:38.000Z,60.07
2018-05-10T15:30:06.550Z,60.85
2018-05-10T15:32:34.831Z,60.15
2018-05-10T15:35:08.944Z,59.74
2018-05-10T15:37:37.241Z,60.57
2018-05-10T15:40:06.612Z,60.35
2018-05-10T15:42:34.910Z,61.34
2018-05-10T15:45:06.516Z,59.96
2018-05-10T15:47:34.991Z,59.41
2018-05-10T15:50:09.065Z,60.90
2018-05-10T15:52:37.411Z,62.23
2018-05-10T15:55:06.836Z,60.19
2018-05-10T15:57:35.120Z,61.69
2018-05-10T16:00:07.044Z,60.49
2018-05-10T16:02:35.360Z,59.44
2018-05-10T16:05:06.049Z,59.90
2018-05-10T16:07:34.344Z,60.97
2018-05-10T16:10:06.086Z,61.13
2018-05-10T16:12:34.360Z,62.12
2018-05-10T16:15:06.061Z,60.00
2018-05-10T16:17:34.337Z,60.49
2018-05-10T16:20:05.826Z,59.77
2018-05-10T16:22:34.435Z,60.04
2018-05-10T16:25:05.805Z,59.25
2018-05-10T16:27:34.091Z,59.49
2018-05-10T16:30:05.793Z,60.21
2018-05-10T16:32:34.089Z,60.35
2018-05-10T16:35:05.826Z,60.50
2018-05-10T16:37:34.122Z,60.66
2018-05-10T16:40:05.484Z,60.44
2018-05-10T16:42:33.806Z,59.75
2018-05-10T16:45:05.364Z,58.65
2018-05-10T16:47:33.670Z,58.14
2018-05-10T16:50:05.988Z,56.40
2018-05-10T16:52:34.183Z,55.81
2018-05-10T16:55:05.640Z,54.96
2018-05-10T16:57:33.932Z,54.93
2018-05-10T17:00:05.265Z,55.16
2018-05-10T17:02:33.557Z,54.27
2018-05-10T17:05:08.110Z,55.20
2018-05-10T17:07:36.396Z,54.66
2018-05-10T17:10:07.059Z,55.43
2018-05-10T17:12:35.368Z,56.04
2018-05-10T17:15:07.077Z,56.68
2018-05-10T17:17:35.351Z,56.43
2018-05-10T17:20:06.737Z,56.86
2018-05-10T17:22:35.095Z,56.58
2018-05-10T17:25:07.004Z,56.28
2018-05-10T17:27:35.431Z,55.95
2018-05-10T17:30:07.589Z,56.38
2018-05-10T17:32:35.983Z,56.54
2018-05-10T17:35:06.283Z,57.00
2018-05-10T17:37:34.575Z,56.71
2018-05-10T17:40:05.864Z,56.51
2018-05-10T17:42:34.196Z,56.54
2018-05-10T17:45:06.142Z,56.82
2018-05-10T17:47:34.429Z,56.99
2018-05-10T17:50:05.960Z,57.31
2018-05-10T17:52:34.263Z,56.63
2018-05-10T17:55:05.892Z,57.21
2018-05-10T17:57:34.127Z,57.45
2018-05-10T18:00:06.191Z,57.42
2018-05-10T18:02:34.499Z,57.20
2018-05-10T18:05:08.454Z,57.76
2018-05-10T18:07:36.729Z,56.82
2018-05-10T18:10:06.012Z,56.18
2018-05-10T18:12:34.296Z,56.59
2018-05-10T18:15:06.200Z,55.18
2018-05-10T18:17:34.526Z,55.25
2018-05-10T18:20:07.271Z,56.14
2018-05-10T18:22:35.636Z,56.64
2018-05-10T18:25:06.983Z,56.24
2018-05-10T18:27:35.305Z,56.45
2018-05-10T18:30:07.132Z,56.08
2018-05-10T18:32:35.803Z,56.01
2018-05-10T18:35:07.719Z,55.65
2018-05-10T18:37:36.035Z,56.04
2018-05-10T18:40:07.049Z,55.77
2018-05-10T18:42:35.715Z,55.74
2018-05-10T18:45:07.719Z,56.01
2018-05-10T18:47:36.029Z,55.71
2018-05-10T18:50:07.531Z,55.94
2018-05-10T18:52:35.852Z,56.24
2018-05-10T18:55:07.332Z,56.20
2018-05-10T18:57:35.632Z,56.44
2018-05-10T19:00:07.667Z,56.58
2018-05-10T19:02:35.958Z,56.77
2018-05-10T19:05:07.144Z,56.51
2018-05-10T19:07:35.622Z,55.74
2018-05-10T19:10:08.246Z,56.03
2018-05-10T19:12:36.527Z,56.42
2018-05-10T19:15:08.123Z,56.04
2018-05-10T19:17:36.402Z,55.59
2018-05-10T19:20:06.308Z,55.56
2018-05-10T19:22:34.763Z,55.71
2018-05-10T19:25:06.951Z,55.80
2018-05-10T19:27:35.247Z,55.43
2018-05-10T19:30:07.380Z,55.96
2018-05-10T19:32:35.680Z,55.77
2018-05-10T19:35:06.876Z,55.78
2018-05-10T19:37:35.184Z,55.85
2018-05-10T19:40:06.512Z,55.88
2018-05-10T19:42:34.787Z,55.69
2018-05-10T19:45:06.801Z,55.86
2018-05-10T19:47:35.113Z,56.04
2018-05-10T19:50:06.003Z,55.77
2018-05-10T19:52:34.306Z,55.95
2018-05-10T19:55:06.216Z,55.91
2018-05-10T19:57:34.503Z,56.14
2018-05-10T20:00:05.835Z,56.22
2018-05-10T20:02:34.118Z,56.36
2018-05-10T20:05:05.423Z,57.35
2018-05-10T20:07:33.695Z,57.13
2018-05-10T20:10:08.468Z,56.98
2018-05-10T20:12:36.747Z,56.67
2018-05-10T20:15:06.773Z,57.22
2018-05-10T20:17:35.036Z,57.50
2018-05-10T20:20:07.065Z,58.01
2018-05-10T20:22:35.346Z,58.53
2018-05-10T20:25:07.439Z,58.86
2018-05-10T20:27:35.713Z,58.71
2018-05-10T20:30:07.854Z,58.74
2018-05-10T20:32:36.126Z,58.23
2018-05-10T20:35:05.983Z,58.96
2018-05-10T20:37:34.457Z,58.87
2018-05-10T20:40:05.852Z,59.42
2018-05-10T20:42:34.223Z,59.68
2018-05-10T20:45:05.792Z,59.46
2018-05-10T20:47:34.319Z,59.42
2018-05-10T20:50:05.726Z,59.71
2018-05-10T20:52:34.064Z,59.53
2018-05-10T20:55:05.917Z,59.32
2018-05-10T20:57:34.118Z,59.13
2018-05-10T21:00:06.092Z,59.09
2018-05-10T21:02:34.367Z,59.36
2018-05-10T21:05:07.555Z,58.26
2018-05-10T21:07:35.815Z,57.64
2018-05-10T21:10:07.018Z,58.15
2018-05-10T21:12:41.809Z,57.93
2018-05-10T21:15:10.104Z,58.02
2018-05-10T21:17:38.371Z,58.11
2018-05-10T21:20:06.746Z,58.30
2018-05-10T21:22:34.941Z,58.62
2018-05-10T21:25:06.209Z,58.77
2018-05-10T21:27:34.493Z,58.50
2018-05-10T21:30:06.390Z,58.97
2018-05-10T21:32:34.654Z,58.99
2018-05-10T21:35:06.266Z,59.36
2018-05-10T21:37:34.542Z,59.71
2018-05-10T21:40:06.419Z,59.95
2018-05-10T21:42:34.679Z,59.45
2018-05-10T21:45:08.825Z,60.07
2018-05-10T21:47:37.112Z,60.22
2018-05-10T21:50:06.769Z,60.18
2018-05-10T21:52:35.035Z,60.76
2018-05-10T21:55:06.850Z,61.07
2018-05-10T21:57:35.199Z,61.12
2018-05-10T22:00:07.032Z,61.39
2018-05-10T22:02:35.309Z,61.56
2018-05-10T22:20:06.502Z,63.74
2018-05-10T22:22:34.777Z,64.38
2018-05-10T22:25:07.323Z,63.60
2018-05-10T22:27:35.668Z,63.80
2018-05-10T22:30:07.619Z,64.31
2018-05-10T22:32:35.840Z,65.11
2018-05-10T22:35:07.391Z,64.77
2018-05-10T22:37:35.667Z,64.69
2018-05-10T22:40:07.463Z,64.36
2018-05-10T22:42:35.912Z,65.53
2018-05-10T22:45:07.518Z,65.56
2018-05-10T22:47:35.808Z,65.95
2018-05-10T22:50:07.303Z,65.60
2018-05-10T22:52:35.584Z,67.07
2018-05-10T22:55:07.121Z,66.49
2018-05-10T22:57:35.411Z,66.11
2018-05-10T23:00:07.212Z,66.57
2018-05-10T23:02:35.531Z,66.65
2018-05-10T23:05:07.696Z,67.20
2018-05-10T23:07:35.995Z,67.76
2018-05-10T23:10:07.243Z,67.88
2018-05-10T23:12:35.512Z,68.12
2018-05-10T23:15:07.123Z,68.37
2018-05-10T23:17:35.407Z,68.35
2018-05-10T23:20:07.200Z,69.70
2018-05-10T23:22:35.494Z,69.13
2018-05-10T23:25:07.411Z,69.22
2018-05-10T23:27:35.684Z,69.52
2018-05-10T23:30:07.767Z,70.63
2018-05-10T23:32:36.072Z,70.70
2018-05-10T23:35:06.015Z,70.54
2018-05-10T23:37:34.304Z,71.06
2018-05-10T23:40:08.325Z,71.64
2018-05-10T23:42:36.623Z,71.51
2018-05-10T23:45:06.523Z,71.96
2018-05-10T23:47:35.195Z,72.18
2018-05-10T23:50:06.033Z,72.14
2018-05-10T23:52:34.519Z,72.18
2018-05-10T23:55:06.119Z,72.06
2018-05-10T23:57:34.677Z,72.50
